Ustica, Italy

06:52 PM CET del 20 Febbraio 2017 (GMT +0100)
Punta Raisi | | Change Station

Alt. 112 ft 38.18 °N, 13.10 °E | Updated 32 minutes ago

Parzialmente nuvoloso
Parzialmente nuvoloso
55 °F
Sembra 55 °F
N
1
Vento Variabile Vento da NNO

Oggi
Massima -- | Minima -- °F
--% Possibilità di precip.
Ieri
Massima -- | Minima -- °F
Precip. -- in
Pressione 30.18 in
Visibilità 6.2 miglia
Nuvole Alcuni 5000 ft
Punto di rugiada 39 °F
Umidità 54%
Piovosità 0.00 in
Spessore del manto nevoso Non disponibile.
6:51 AM 5:50 PM
Luna calante, 32% visible
METAR LICJ 201720Z 33001KT 9999 FEW050 13/04 Q1022
Pressione 30.18 in
Visibilità 6.2 miglia
Nuvole Alcuni 5000 ft
Punto di rugiada 39 °F
Umidità 54%
Piovosità 0.00 in
Spessore del manto nevoso Non disponibile.
6:51 AM 5:50 PM
Luna calante, 32% visible
METAR LICJ 201720Z 33001KT 9999 FEW050 13/04 Q1022

Get Your Daily Forecast Email!

Thanks for signing up!

Be on the lookout for a verification email in your inbox.

You'll start receiving the daily forecast at 8 AM.

×

10-Day Weather Forecast

×

Almanac

Astronomia

Feb. 20, 2017 Alba Tramonto
Ora attuale
Crepuscolo civile
Crepuscolo nautico
Crepuscolo astronomico
Luna
Estensione della luce visibile
Lunghezza del giorno
Tomorrow will be .
, % of the Moon is Illuminated

Gli estremi di oggi

Massime Regione Minime Regione

Community

WunderPhotos

Upload Photos

1,962,540 foto caricate!

WunderBlog® & News

Nearby

Qualità dell'aria

  Qualità dell'aria Indice AQ Inquinante
Not available.

Profondità neve

Stazione Profondità Altitudine

Attività sismica

Città  Distanza Mag. Data & Ora
Minimo Magnitudo Mostrato è 2.5.

Temperature delle acque costiere

Località Temperatura

Stations

Stazioni meteo nelle vicinanze

Ubicazione della stazione Temp. Raffreddamento del vento Punto di rugiada Umidità Vento Precip. Alt. Aggiornato Tipo